Time;durP1;ratioP1;P1;durP2;ratioP2;P2;SDS_P1;SDS_P2;PMS_P1;PMS_P2;Temp;Humidity;BMP_temperature;BMP_pressure;BME280_temperature;BME280_humidity;BME280_pressure;Samples;Min_cycle;Max_cycle;Signal;HPM_P1;HPM_P2
2021/10/21 00:01:41;;;;;;;2.20;1.47;;;16.00;84.40;;;;;;5094497;28;20534;-47
2021/10/21 00:04:08;;;;;;;2.37;1.87;;;16.00;84.50;;;;;;5091962;28;20559;-46
2021/10/21 00:06:35;;;;;;;3.33;1.40;;;16.00;84.40;;;;;;5093224;28;20450;-46
2021/10/21 00:09:02;;;;;;;2.40;1.50;;;16.00;84.60;;;;;;5096235;28;20848;-47
2021/10/21 00:11:31;;;;;;;1.87;1.30;;;16.00;84.50;;;;;;5075731;28;20526;-46
2021/10/21 00:13:58;;;;;;;2.00;1.73;;;16.00;84.40;;;;;;5091586;28;20458;-47
2021/10/21 00:16:25;;;;;;;2.13;1.90;;;16.00;84.60;;;;;;5094157;28;20481;-47
2021/10/21 00:18:52;;;;;;;2.00;1.80;;;16.00;84.50;;;;;;5081579;28;20471;-43
2021/10/21 00:21:19;;;;;;;1.93;1.73;;;16.00;84.70;;;;;;5081615;28;20572;-43
2021/10/21 00:23:46;;;;;;;1.90;1.70;;;16.00;84.60;;;;;;5081274;28;20484;-43
2021/10/21 00:26:13;;;;;;;1.73;1.63;;;16.00;84.70;;;;;;5063481;28;20460;-43
2021/10/21 00:28:39;;;;;;;1.60;1.50;;;16.00;84.60;;;;;;5080326;28;20827;-43
2021/10/21 00:31:06;;;;;;;1.57;1.40;;;16.00;84.70;;;;;;5067395;28;20456;-43
2021/10/21 00:33:33;;;;;;;2.17;1.50;;;16.00;84.60;;;;;;5063191;28;20464;-43
2021/10/21 00:36:00;;;;;;;2.10;1.50;;;16.00;84.70;;;;;;5077943;28;20464;-43
2021/10/21 00:38:27;;;;;;;3.27;1.33;;;16.00;84.50;;;;;;5076191;28;20458;-43
2021/10/21 00:40:54;;;;;;;1.53;1.27;;;16.10;84.20;;;;;;5063421;28;20445;-42
2021/10/21 00:43:25;;;;;;;1.40;1.23;;;16.10;84.20;;;;;;5082157;28;20476;-43
2021/10/21 00:45:52;;;;;;;1.30;1.20;;;16.10;84.20;;;;;;5079454;28;20981;-43
2021/10/21 00:48:18;;;;;;;3.27;1.43;;;16.10;84.10;;;;;;5076770;28;20450;-43
2021/10/21 00:50:45;;;;;;;1.80;1.70;;;16.10;84.00;;;;;;5063370;28;20444;-43
2021/10/21 00:53:13;;;;;;;2.90;1.67;;;16.10;84.00;;;;;;5079290;28;20466;-43
2021/10/21 00:55:40;;;;;;;1.67;1.57;;;16.10;84.10;;;;;;5082526;28;20539;-43
2021/10/21 00:58:07;;;;;;;6.20;1.70;;;16.10;84.30;;;;;;5077965;28;20453;-43
2021/10/21 01:00:34;;;;;;;1.80;1.70;;;16.00;84.70;;;;;;5064939;28;20459;-43
2021/10/21 01:03:01;;;;;;;3.30;1.93;;;16.00;84.90;;;;;;5075485;28;20518;-43
2021/10/21 01:05:28;;;;;;;2.30;2.10;;;16.10;85.20;;;;;;5077726;28;20989;-44
2021/10/21 01:07:55;;;;;;;2.70;1.90;;;16.00;85.40;;;;;;5077416;28;20445;-43
2021/10/21 01:10:22;;;;;;;2.00;1.80;;;16.00;85.50;;;;;;5077067;28;20456;-43
2021/10/21 01:12:49;;;;;;;1.67;1.57;;;16.00;85.60;;;;;;5062636;28;20449;-42
2021/10/21 01:15:26;;;;;;;2.03;1.80;;;16.00;85.60;;;;;;5074703;28;20468;-43
2021/10/21 01:17:54;;;;;;;2.90;1.73;;;16.10;85.70;;;;;;5064990;28;20591;-43
2021/10/21 01:20:23;;;;;;;2.20;2.00;;;16.00;85.70;;;;;;5079711;28;20483;-43
2021/10/21 01:22:50;;;;;;;1.60;1.50;;;16.00;85.70;;;;;;5081996;28;20484;-43
2021/10/21 01:25:18;;;;;;;4.40;1.80;;;16.10;85.70;;;;;;5077373;28;20447;-43
2021/10/21 01:27:47;;;;;;;2.53;1.80;;;16.00;86.00;;;;;;5074562;28;20456;-43
2021/10/21 01:30:21;;;;;;;1.70;1.47;;;16.00;86.20;;;;;;5075062;28;21065;-43
2021/10/21 01:32:49;;;;;;;2.43;1.70;;;16.00;86.30;;;;;;5063547;28;20877;-43
2021/10/21 01:35:16;;;;;;;6.00;2.20;;;16.10;86.20;;;;;;5063602;28;20469;-44
2021/10/21 01:37:44;;;;;;;1.73;1.63;;;16.10;85.60;;;;;;5077769;28;20464;-44
2021/10/21 01:40:11;;;;;;;4.20;2.50;;;16.20;85.50;;;;;;5065470;28;20455;-44
2021/10/21 01:42:39;;;;;;;2.97;2.17;;;16.20;85.80;;;;;;5077261;28;20563;-44
2021/10/21 01:45:28;;;;;;;4.33;2.30;;;16.30;86.40;;;;;;5079533;28;20465;-44
2021/10/21 01:47:55;;;;;;;2.20;2.00;;;16.30;88.10;;;;;;5080612;28;20476;-45
2021/10/21 01:50:23;;;;;;;4.10;2.20;;;16.30;87.60;;;;;;5086582;28;20955;-46
2021/10/21 01:52:50;;;;;;;2.93;2.13;;;16.20;88.30;;;;;;5087154;28;20461;-46
2021/10/21 01:55:18;;;;;;;2.10;1.90;;;16.10;88.40;;;;;;5089667;28;20536;-46
2021/10/21 01:57:46;;;;;;;2.77;1.70;;;16.10;87.80;;;;;;5069134;28;20457;-46
2021/10/21 02:00:15;;;;;;;2.10;1.40;;;16.00;86.30;;;;;;5056008;28;20532;-48
2021/10/21 02:02:44;;;;;;;3.43;0.97;;;15.90;85.70;;;;;;5064057;28;20476;-45
2021/10/21 02:05:13;;;;;;;3.70;1.10;;;15.80;82.70;;;;;;5084482;28;20472;-46
2021/10/21 02:07:41;;;;;;;4.43;0.90;;;15.60;81.60;;;;;;5084665;28;20521;-46
2021/10/21 02:10:15;;;;;;;1.83;0.70;;;15.40;80.20;;;;;;5085025;28;20449;-46
2021/10/21 02:12:42;;;;;;;2.10;0.63;;;15.20;81.20;;;;;;5086905;28;21111;-44
2021/10/21 02:15:09;;;;;;;2.30;0.70;;;15.10;81.50;;;;;;5077832;28;21009;-44
2021/10/21 02:17:36;;;;;;;0.97;0.57;;;15.00;81.90;;;;;;5076416;28;20666;-44
2021/10/21 02:20:03;;;;;;;4.00;0.67;;;14.80;80.80;;;;;;5078060;28;20465;-44
2021/10/21 02:22:30;;;;;;;2.53;0.83;;;14.70;80.10;;;;;;5067146;28;20852;-45
2021/10/21 02:24:56;;;;;;;0.60;0.47;;;14.60;80.80;;;;;;5079052;28;20452;-45
2021/10/21 02:27:23;;;;;;;2.10;0.90;;;14.50;80.10;;;;;;5084257;28;20535;-45
2021/10/21 02:29:50;;;;;;;3.50;0.70;;;14.50;80.00;;;;;;5082949;28;20449;-45
2021/10/21 02:32:17;;;;;;;4.43;0.63;;;14.40;80.10;;;;;;5090210;28;20995;-46
2021/10/21 02:34:43;;;;;;;1.63;0.50;;;14.40;80.10;;;;;;5073263;28;20480;-46
2021/10/21 02:37:10;;;;;;;3.00;0.70;;;14.40;79.40;;;;;;5070610;28;20452;-46
2021/10/21 02:39:37;;;;;;;4.27;0.83;;;14.30;79.50;;;;;;5087963;28;20806;-46
2021/10/21 02:42:03;;;;;;;1.87;0.80;;;14.30;79.40;;;;;;5092349;28;20445;-46
2021/10/21 02:44:30;;;;;;;1.70;0.80;;;14.30;80.20;;;;;;5062101;28;21032;-46
2021/10/21 02:46:57;;;;;;;1.20;0.67;;;14.30;79.50;;;;;;5087992;28;20460;-46
2021/10/21 02:49:24;;;;;;;3.33;0.60;;;14.20;79.70;;;;;;5068922;28;20445;-46
2021/10/21 02:51:50;;;;;;;0.67;0.50;;;14.20;79.20;;;;;;5062130;28;20445;-44
2021/10/21 02:54:17;;;;;;;2.20;0.80;;;14.20;79.20;;;;;;5058913;28;20453;-44
2021/10/21 02:56:44;;;;;;;1.30;0.77;;;14.20;80.00;;;;;;5077274;28;20461;-44
2021/10/21 02:59:11;;;;;;;3.17;0.97;;;14.10;79.60;;;;;;5088052;28;20445;-46
2021/10/21 03:01:37;;;;;;;5.73;0.80;;;14.10;78.60;;;;;;5081305;28;20911;-43
2021/10/21 03:04:05;;;;;;;1.80;0.80;;;14.10;78.60;;;;;;5075549;28;20492;-44
2021/10/21 03:06:31;;;;;;;10.00;2.50;;;14.10;78.60;;;;;;5077622;28;20475;-43
2021/10/21 03:08:58;;;;;;;3.33;1.20;;;14.10;78.10;;;;;;5079574;28;20987;-43
2021/10/21 03:11:25;;;;;;;1.60;0.70;;;14.10;77.20;;;;;;5075830;28;20441;-43
2021/10/21 03:13:51;;;;;;;3.23;1.00;;;14.10;76.10;;;;;;5076943;28;20448;-44
2021/10/21 03:16:18;;;;;;;6.93;1.07;;;14.10;75.90;;;;;;5074583;28;20467;-44
2021/10/21 03:18:45;;;;;;;2.20;0.70;;;14.20;76.40;;;;;;5076753;28;20453;-44
2021/10/21 03:21:11;;;;;;;2.67;0.87;;;14.20;75.70;;;;;;5077066;28;20467;-44
2021/10/21 03:23:38;;;;;;;2.90;1.10;;;14.20;75.50;;;;;;5075529;28;20868;-44
2021/10/21 03:26:05;;;;;;;7.17;1.03;;;14.20;76.60;;;;;;5079226;28;20457;-44
2021/10/21 03:28:32;;;;;;;5.57;1.10;;;14.20;76.00;;;;;;5059603;28;20454;-44
2021/10/21 03:30:58;;;;;;;2.20;1.17;;;14.20;76.10;;;;;;5082110;28;20535;-44
2021/10/21 03:33:25;;;;;;;5.60;1.23;;;14.20;75.70;;;;;;5078786;28;20456;-44
2021/10/21 03:35:52;;;;;;;1.63;1.00;;;14.20;75.90;;;;;;5077972;28;20452;-45
2021/10/21 03:38:19;;;;;;;4.37;1.00;;;14.20;75.70;;;;;;5060202;28;20810;-45
2021/10/21 03:40:45;;;;;;;7.40;1.20;;;14.30;74.80;;;;;;5075732;28;20528;-45
2021/10/21 03:43:12;;;;;;;6.67;1.40;;;14.30;74.00;;;;;;5064286;28;20989;-45
2021/10/21 03:45:42;;;;;;;6.90;0.77;;;14.30;74.10;;;;;;5077843;28;20453;-45
2021/10/21 03:48:09;;;;;;;3.00;1.03;;;14.30;73.20;;;;;;5077303;28;20449;-45
2021/10/21 03:50:36;;;;;;;2.23;0.60;;;14.30;72.70;;;;;;5075900;28;20484;-45
2021/10/21 03:53:03;;;;;;;1.60;0.67;;;14.30;73.30;;;;;;5076036;28;20468;-44
2021/10/21 03:55:29;;;;;;;2.73;0.90;;;14.30;72.70;;;;;;5078318;28;20950;-44
2021/10/21 03:57:56;;;;;;;4.90;0.90;;;14.30;71.70;;;;;;5077997;28;20455;-44
2021/10/21 04:00:27;;;;;;;4.13;0.90;;;14.30;72.10;;;;;;5061174;28;20444;-44
2021/10/21 04:02:54;;;;;;;4.20;0.93;;;14.30;72.20;;;;;;5055780;28;20690;-44
2021/10/21 04:05:22;;;;;;;6.43;1.53;;;14.30;72.70;;;;;;5065917;28;20449;-45
2021/10/21 04:07:49;;;;;;;3.90;1.00;;;14.30;72.00;;;;;;5076895;28;20452;-45
2021/10/21 04:10:16;;;;;;;4.67;0.90;;;14.30;71.20;;;;;;5080303;28;20446;-45
2021/10/21 04:12:43;;;;;;;2.40;0.80;;;14.30;71.80;;;;;;5085434;28;20879;-45
2021/10/21 04:15:10;;;;;;;2.20;0.90;;;14.30;70.90;;;;;;5079378;28;20457;-45
2021/10/21 04:17:38;;;;;;;6.60;1.00;;;14.40;70.90;;;;;;5082322;28;20873;-46
2021/10/21 04:20:06;;;;;;;2.70;0.87;;;14.40;70.50;;;;;;5078630;28;22961;-46
2021/10/21 04:22:33;;;;;;;5.13;1.17;;;14.40;71.00;;;;;;5086552;28;20460;-46
2021/10/21 04:25:00;;;;;;;2.70;1.00;;;14.40;70.80;;;;;;5065406;28;21080;-44
2021/10/21 04:27:27;;;;;;;2.13;1.07;;;14.40;71.30;;;;;;5062945;28;20455;-43
2021/10/21 04:29:53;;;;;;;2.00;0.70;;;14.40;70.80;;;;;;5089792;28;20453;-46
2021/10/21 04:32:20;;;;;;;6.80;1.23;;;14.40;70.70;;;;;;5080639;28;20445;-46
2021/10/21 04:34:47;;;;;;;4.03;0.73;;;14.40;70.30;;;;;;5099412;28;20548;-46
2021/10/21 04:37:13;;;;;;;1.70;0.83;;;14.40;71.00;;;;;;5075184;28;20544;-46
2021/10/21 04:39:40;;;;;;;8.83;0.83;;;14.50;70.40;;;;;;5071728;28;20472;-46
2021/10/21 04:42:07;;;;;;;1.20;1.00;;;14.40;70.60;;;;;;5093887;28;20816;-46
2021/10/21 04:44:34;;;;;;;9.07;1.40;;;14.40;71.10;;;;;;5089826;28;20495;-46
2021/10/21 04:47:00;;;;;;;17.73;8.00;;;14.40;71.00;;;;;;5093608;28;20446;-46
2021/10/21 04:49:27;;;;;;;4.23;0.93;;;14.40;71.70;;;;;;5087901;28;20509;-46
2021/10/21 04:51:54;;;;;;;7.27;1.90;;;14.40;71.40;;;;;;5089518;28;20934;-46
2021/10/21 04:54:21;;;;;;;5.40;1.50;;;14.40;71.50;;;;;;5090206;28;20453;-47
2021/10/21 04:56:55;;;;;;;4.47;1.17;;;14.40;71.40;;;;;;5086970;28;20457;-46
2021/10/21 04:59:21;;;;;;;5.33;1.23;;;14.30;72.20;;;;;;5084996;28;20453;-46
2021/10/21 05:01:48;;;;;;;5.40;1.47;;;14.30;72.40;;;;;;5066987;28;20993;-46
2021/10/21 05:04:15;;;;;;;6.97;1.37;;;14.30;72.90;;;;;;5090661;28;20486;-45
2021/10/21 05:06:42;;;;;;;3.43;1.00;;;14.20;73.10;;;;;;5066045;28;20479;-43
2021/10/21 05:09:09;;;;;;;7.70;1.70;;;14.20;72.90;;;;;;5078478;28;20450;-43
2021/10/21 05:11:35;;;;;;;4.10;1.10;;;14.10;73.00;;;;;;5076705;28;20528;-44
2021/10/21 05:14:02;;;;;;;1.87;0.80;;;14.10;73.40;;;;;;5080196;28;20453;-44
2021/10/21 05:16:29;;;;;;;3.90;1.33;;;14.00;72.80;;;;;;5077454;28;20461;-44
2021/10/21 05:18:56;;;;;;;2.93;0.83;;;14.00;71.90;;;;;;5060594;28;20474;-44
2021/10/21 05:21:23;;;;;;;9.70;1.30;;;14.10;71.60;;;;;;5076914;28;20981;-44
2021/10/21 05:23:50;;;;;;;2.87;1.10;;;14.10;70.80;;;;;;5076505;28;20826;-44
2021/10/21 05:26:16;;;;;;;3.87;1.07;;;14.10;69.80;;;;;;5077160;28;20445;-44
2021/10/21 05:28:43;;;;;;;6.20;1.33;;;14.10;69.90;;;;;;5083995;28;20444;-44
2021/10/21 05:31:10;;;;;;;2.77;1.30;;;14.10;69.70;;;;;;5078948;28;20464;-44
2021/10/21 05:33:36;;;;;;;3.70;1.43;;;14.10;69.70;;;;;;5080046;28;20458;-44
2021/10/21 05:36:04;;;;;;;2.27;0.90;;;14.10;69.60;;;;;;5076510;28;20450;-44
2021/10/21 05:38:31;;;;;;;2.50;0.70;;;14.10;70.00;;;;;;5056075;28;20456;-43
2021/10/21 05:40:59;;;;;;;7.87;0.97;;;14.10;69.90;;;;;;5078610;28;20456;-43
2021/10/21 05:43:26;;;;;;;5.23;1.33;;;14.10;69.80;;;;;;5077934;28;20477;-43
2021/10/21 05:45:52;;;;;;;7.43;1.90;;;14.10;70.30;;;;;;5079293;28;20960;-43
2021/10/21 05:48:19;;;;;;;3.47;0.70;;;14.10;69.60;;;;;;5077369;28;20800;-43
2021/10/21 05:50:46;;;;;;;5.00;1.30;;;14.10;68.40;;;;;;5074190;28;20450;-43
2021/10/21 05:53:13;;;;;;;4.53;1.03;;;14.10;68.90;;;;;;5057887;28;20894;-43
2021/10/21 05:55:40;;;;;;;10.37;2.53;;;14.10;68.60;;;;;;5076979;28;20467;-43
2021/10/21 05:58:12;;;;;;;2.80;0.90;;;14.10;68.50;;;;;;5079448;28;20814;-43
2021/10/21 06:00:39;;;;;;;6.30;1.30;;;14.10;68.70;;;;;;5076049;28;20464;-43
2021/10/21 06:03:06;;;;;;;4.23;0.63;;;14.10;69.40;;;;;;5074303;28;20477;-43
2021/10/21 06:05:33;;;;;;;3.43;0.83;;;14.00;69.10;;;;;;5071343;28;20668;-43
2021/10/21 06:08:00;;;;;;;4.90;0.70;;;14.00;69.50;;;;;;5073255;28;20450;-43
2021/10/21 06:10:27;;;;;;;7.77;0.83;;;14.00;69.50;;;;;;5071822;28;20518;-43
2021/10/21 06:12:55;;;;;;;2.73;0.60;;;14.00;69.10;;;;;;5070819;28;20441;-43
2021/10/21 06:15:22;;;;;;;1.67;0.57;;;14.00;68.40;;;;;;5058656;28;20465;-43
2021/10/21 06:17:49;;;;;;;1.90;0.60;;;14.00;69.40;;;;;;5062874;28;20476;-43
2021/10/21 06:20:16;;;;;;;3.40;0.47;;;14.00;70.00;;;;;;5078272;28;21009;-43
2021/10/21 06:22:43;;;;;;;2.13;0.70;;;13.90;69.30;;;;;;5075984;28;20594;-43
2021/10/21 06:25:12;;;;;;;2.33;0.63;;;13.90;70.30;;;;;;5076838;28;21152;-43
2021/10/21 06:27:39;;;;;;;1.13;0.50;;;13.80;70.80;;;;;;5071337;28;20454;-43
2021/10/21 06:30:07;;;;;;;2.90;0.80;;;13.80;71.60;;;;;;5070869;28;20458;-43
2021/10/21 06:32:34;;;;;;;3.00;0.40;;;13.70;71.90;;;;;;5074401;28;20912;-43
2021/10/21 06:35:01;;;;;;;3.97;1.33;;;13.60;72.20;;;;;;5073712;28;20465;-43
2021/10/21 06:37:28;;;;;;;2.53;0.77;;;13.60;71.80;;;;;;5076052;28;20476;-42
2021/10/21 06:39:55;;;;;;;6.13;0.70;;;13.60;72.30;;;;;;5072732;28;20445;-42
2021/10/21 06:42:23;;;;;;;1.70;0.77;;;13.50;72.10;;;;;;5053018;28;20453;-42
2021/10/21 06:44:51;;;;;;;2.37;0.40;;;13.50;72.60;;;;;;5050634;28;21011;-42
2021/10/21 06:47:18;;;;;;;3.70;0.67;;;13.60;72.80;;;;;;5060564;28;20976;-43
2021/10/21 06:49:45;;;;;;;1.73;0.40;;;13.50;73.40;;;;;;5078809;28;21009;-42
2021/10/21 06:52:12;;;;;;;2.57;0.40;;;13.50;73.80;;;;;;5073545;28;20821;-42
2021/10/21 06:54:39;;;;;;;3.50;1.17;;;13.40;74.10;;;;;;5059074;28;20896;-42
2021/10/21 06:57:05;;;;;;;1.20;0.67;;;13.40;74.30;;;;;;5058639;28;20449;-42
2021/10/21 06:59:32;;;;;;;0.87;0.33;;;13.40;74.00;;;;;;5082473;28;20454;-42
2021/10/21 07:01:59;;;;;;;0.80;0.40;;;13.40;74.50;;;;;;5061556;28;20457;-42
2021/10/21 07:04:26;;;;;;;0.87;0.50;;;13.40;74.40;;;;;;5074533;28;20496;-42
2021/10/21 07:06:52;;;;;;;5.13;0.50;;;13.40;74.60;;;;;;5058188;28;20444;-42
2021/10/21 07:09:19;;;;;;;0.93;0.50;;;13.30;75.40;;;;;;5075031;28;20459;-42
2021/10/21 07:11:46;;;;;;;6.63;0.93;;;13.30;75.60;;;;;;5074447;28;20456;-42
2021/10/21 07:14:12;;;;;;;1.17;0.20;;;13.30;75.20;;;;;;5058601;28;20546;-42
2021/10/21 07:16:39;;;;;;;0.77;0.30;;;13.30;75.60;;;;;;5074041;28;20464;-42
2021/10/21 07:19:07;;;;;;;0.43;0.37;;;13.40;75.80;;;;;;5075739;28;20515;-42
2021/10/21 07:21:33;;;;;;;1.13;0.33;;;13.40;75.80;;;;;;5075435;28;21028;-42
2021/10/21 07:24:04;;;;;;;1.57;0.30;;;13.40;75.90;;;;;;5080757;28;21079;-42
2021/10/21 07:26:31;;;;;;;4.83;0.30;;;13.40;75.90;;;;;;5074369;28;20843;-43
2021/10/21 07:28:58;;;;;;;0.40;0.30;;;13.50;75.90;;;;;;5075063;28;20449;-42
2021/10/21 07:31:26;;;;;;;1.90;0.30;;;13.50;75.40;;;;;;5073629;28;20466;-42
2021/10/21 07:33:53;;;;;;;2.43;0.40;;;13.60;75.90;;;;;;5056863;28;20465;-42
2021/10/21 07:36:22;;;;;;;1.10;0.20;;;13.70;74.90;;;;;;5076483;28;20460;-42
2021/10/21 07:38:53;;;;;;;0.40;0.30;;;13.80;74.20;;;;;;5076449;28;20456;-42
2021/10/21 07:41:21;;;;;;;0.70;0.30;;;13.80;73.70;;;;;;5073285;28;20457;-42
2021/10/21 07:43:48;;;;;;;1.40;0.60;;;13.80;74.00;;;;;;5076033;28;20799;-43
2021/10/21 07:46:15;;;;;;;0.70;0.47;;;13.80;74.00;;;;;;5060516;28;20476;-43
2021/10/21 07:48:42;;;;;;;0.40;0.30;;;13.80;72.60;;;;;;5057424;28;20527;-43
2021/10/21 07:51:09;;;;;;;0.50;0.30;;;13.80;72.50;;;;;;5075881;28;20445;-43
2021/10/21 07:53:35;;;;;;;0.50;0.37;;;13.80;73.80;;;;;;5060087;28;20456;-43
2021/10/21 07:56:03;;;;;;;0.30;0.20;;;13.80;74.10;;;;;;5059330;28;20446;-43
2021/10/21 07:58:29;;;;;;;2.00;0.30;;;13.80;74.50;;;;;;5059396;28;20808;-43
2021/10/21 08:00:56;;;;;;;0.40;0.30;;;13.90;74.60;;;;;;5080195;28;20449;-43
2021/10/21 08:03:23;;;;;;;5.57;0.60;;;13.90;74.70;;;;;;5063722;28;20476;-43
2021/10/21 08:05:50;;;;;;;2.47;0.30;;;14.00;74.40;;;;;;5080707;28;20509;-43
2021/10/21 08:08:16;;;;;;;1.60;0.30;;;14.00;72.60;;;;;;5080572;28;20449;-43
2021/10/21 08:10:43;;;;;;;2.30;0.77;;;14.10;71.90;;;;;;5068191;28;20557;-43
2021/10/21 08:13:12;;;;;;;0.80;0.30;;;14.10;70.90;;;;;;5080481;28;20689;-43
2021/10/21 08:15:41;;;;;;;2.03;0.40;;;14.10;71.30;;;;;;5081424;28;20458;-43
2021/10/21 08:18:13;;;;;;;3.30;0.60;;;14.10;69.50;;;;;;5078041;28;20877;-42
2021/10/21 08:20:41;;;;;;;0.60;0.43;;;14.10;69.60;;;;;;5083826;28;20464;-43
2021/10/21 08:23:08;;;;;;;1.60;0.40;;;14.00;69.20;;;;;;5079680;28;20969;-43
2021/10/21 08:25:35;;;;;;;0.80;0.50;;;14.00;69.60;;;;;;5080644;28;20868;-42
2021/10/21 08:28:02;;;;;;;0.60;0.30;;;14.00;68.00;;;;;;5079357;28;20563;-42
2021/10/21 08:30:31;;;;;;;1.53;0.53;;;13.90;68.20;;;;;;5077436;28;20453;-43
2021/10/21 08:32:59;;;;;;;1.63;0.70;;;13.90;66.90;;;;;;5081059;28;20460;-42
2021/10/21 08:35:28;;;;;;;3.77;0.73;;;13.80;66.50;;;;;;5079988;28;20457;-42
2021/10/21 08:37:59;;;;;;;2.13;0.60;;;13.80;66.10;;;;;;5081123;28;20480;-43
2021/10/21 08:40:31;;;;;;;4.10;1.00;;;13.80;67.60;;;;;;5079446;28;20458;-42
2021/10/21 08:43:04;;;;;;;1.50;0.67;;;13.80;67.20;;;;;;5077681;28;20444;-42
2021/10/21 08:45:31;;;;;;;0.57;0.40;;;13.80;67.20;;;;;;5081042;28;20845;-42
2021/10/21 08:48:02;;;;;;;0.60;0.60;;;13.90;67.20;;;;;;5081683;28;20456;-43
2021/10/21 08:50:33;;;;;;;1.63;1.00;;;13.90;67.30;;;;;;5078688;28;20460;-42
2021/10/21 08:53:04;;;;;;;1.83;0.80;;;13.90;67.70;;;;;;5078403;28;20961;-42
2021/10/21 08:55:31;;;;;;;3.07;1.00;;;13.90;67.50;;;;;;5058152;28;20497;-42
2021/10/21 08:57:59;;;;;;;4.50;1.27;;;14.00;66.80;;;;;;5080427;28;20457;-43
2021/10/21 09:00:26;;;;;;;5.63;1.30;;;13.90;66.90;;;;;;5061694;28;20459;-42
2021/10/21 09:02:55;;;;;;;0.93;0.80;;;14.00;67.10;;;;;;5077878;28;20568;-43
2021/10/21 09:08:05;;;;;;;1.67;0.90;;;14.00;66.50;;;;;;5076708;28;20530;-42
2021/10/21 09:10:33;;;;;;;10.23;1.27;;;13.90;66.80;;;;;;5082739;28;20445;-43
2021/10/21 09:13:00;;;;;;;3.00;0.90;;;13.90;65.90;;;;;;5061555;28;20484;-43
2021/10/21 09:15:28;;;;;;;2.63;1.37;;;13.90;66.20;;;;;;5075811;28;20475;-42
2021/10/21 09:17:55;;;;;;;3.10;1.40;;;13.90;66.00;;;;;;5057999;28;21024;-42
2021/10/21 09:20:26;;;;;;;1.17;0.80;;;13.90;66.40;;;;;;5079215;28;20961;-42
2021/10/21 09:23:01;;;;;;;1.27;0.80;;;13.90;67.10;;;;;;5077531;28;20476;-42
2021/10/21 09:25:30;;;;;;;3.77;1.53;;;13.90;66.70;;;;;;5078895;28;20915;-42
2021/10/21 09:28:02;;;;;;;2.13;0.87;;;14.00;65.20;;;;;;5079139;28;20533;-42
2021/10/21 09:30:33;;;;;;;1.63;0.90;;;14.00;65.20;;;;;;5071719;28;20460;-42
2021/10/21 09:33:12;;;;;;;3.13;1.13;;;13.90;65.00;;;;;;5084655;28;20445;-42
2021/10/21 09:35:49;;;;;;;3.80;0.80;;;13.90;65.30;;;;;;5076080;28;20457;-42
2021/10/21 09:38:17;;;;;;;1.77;0.50;;;13.90;65.10;;;;;;5079527;28;20563;-43
2021/10/21 09:40:44;;;;;;;2.37;0.73;;;13.90;65.30;;;;;;5080137;28;20498;-42
2021/10/21 09:43:14;;;;;;;0.97;0.50;;;13.90;63.80;;;;;;5076121;28;20475;-42
2021/10/21 09:45:43;;;;;;;6.73;3.30;;;13.90;64.00;;;;;;5075176;28;20494;-43
2021/10/21 09:48:19;;;;;;;1.20;0.60;;;13.90;65.10;;;;;;5061879;28;20477;-42
2021/10/21 09:50:47;;;;;;;0.70;0.60;;;13.90;66.20;;;;;;5074188;28;20465;-42
2021/10/21 09:53:40;;;;;;;2.03;0.70;;;13.90;63.90;;;;;;5076661;28;20449;-42
2021/10/21 09:56:11;;;;;;;1.73;0.80;;;14.00;64.50;;;;;;5072501;28;20450;-43
2021/10/21 09:58:40;;;;;;;3.80;0.83;;;14.00;64.30;;;;;;5078823;28;20460;-42
2021/10/21 10:01:15;;;;;;;3.33;1.00;;;13.90;63.40;;;;;;5074903;28;20457;-42
2021/10/21 10:03:44;;;;;;;2.80;1.00;;;13.90;63.60;;;;;;5078691;28;20881;-42
2021/10/21 10:06:16;;;;;;;5.17;0.70;;;13.90;63.30;;;;;;5074845;28;20528;-42
2021/10/21 10:08:47;;;;;;;3.20;1.00;;;13.90;64.40;;;;;;5060179;28;20540;-42
2021/10/21 10:11:21;;;;;;;1.80;1.00;;;13.90;64.40;;;;;;5077429;28;20461;-42
2021/10/21 10:13:50;;;;;;;1.43;0.80;;;13.90;63.80;;;;;;5077125;28;20495;-42
2021/10/21 10:16:17;;;;;;;1.60;0.83;;;14.00;63.90;;;;;;5076995;28;20462;-42
2021/10/21 10:18:46;;;;;;;1.97;0.80;;;14.00;65.10;;;;;;5077581;28;20450;-42
2021/10/21 10:21:25;;;;;;;3.17;1.10;;;14.00;64.60;;;;;;5061449;28;20950;-42
2021/10/21 10:23:55;;;;;;;0.83;0.80;;;14.00;64.40;;;;;;5078535;28;20461;-42
2021/10/21 10:26:42;;;;;;;6.53;1.43;;;14.00;64.70;;;;;;5078274;28;20488;-42
2021/10/21 10:29:13;;;;;;;2.83;1.07;;;14.00;64.80;;;;;;5076705;28;20956;-42
2021/10/21 10:31:41;;;;;;;5.67;2.20;;;14.10;64.20;;;;;;5076202;28;20457;-42
2021/10/21 10:34:29;;;;;;;5.23;0.83;;;14.10;64.40;;;;;;5057379;28;20455;-42
2021/10/21 10:36:56;;;;;;;2.10;1.37;;;14.30;63.30;;;;;;5068993;28;20456;-42
2021/10/21 10:39:48;;;;;;;1.90;0.77;;;14.40;63.00;;;;;;5078250;28;20491;-42
2021/10/21 10:42:37;;;;;;;2.20;1.10;;;14.60;62.30;;;;;;5075612;28;20445;-42
2021/10/21 10:45:14;;;;;;;2.53;1.10;;;14.80;61.50;;;;;;5078905;28;21066;-42
2021/10/21 10:47:54;;;;;;;3.90;0.80;;;14.90;61.50;;;;;;5062548;28;20833;-42
2021/10/21 10:50:26;;;;;;;7.70;1.67;;;15.00;62.00;;;;;;5063012;28;20463;-42
2021/10/21 10:53:00;;;;;;;2.90;0.93;;;15.00;60.50;;;;;;5078808;28;20480;-42
2021/10/21 10:55:42;;;;;;;3.90;1.07;;;14.90;61.20;;;;;;5063392;28;20463;-42
2021/10/21 10:58:31;;;;;;;3.53;1.40;;;14.90;62.40;;;;;;5078669;28;20445;-42
2021/10/21 11:00:59;;;;;;;4.70;1.40;;;14.90;62.00;;;;;;5060801;28;20510;-42
2021/10/21 11:03:32;;;;;;;1.37;0.83;;;14.80;62.00;;;;;;5076193;28;20519;-43
2021/10/21 11:05:59;;;;;;;5.93;1.43;;;14.80;62.00;;;;;;5078102;28;20491;-42
2021/10/21 11:08:48;;;;;;;3.90;1.10;;;14.90;61.60;;;;;;5076205;28;20827;-42
2021/10/21 11:11:43;;;;;;;2.30;1.10;;;14.90;61.70;;;;;;5076227;28;20536;-43
2021/10/21 11:14:12;;;;;;;5.07;1.00;;;15.00;62.40;;;;;;5080305;28;20467;-42
2021/10/21 11:16:43;;;;;;;1.73;0.93;;;15.10;61.40;;;;;;5079861;28;20468;-43
2021/10/21 11:19:13;;;;;;;3.13;1.40;;;15.10;62.70;;;;;;5075648;28;20542;-43
2021/10/21 11:21:54;;;;;;;3.73;0.97;;;15.10;61.90;;;;;;5050631;28;20464;-43
2021/10/21 11:24:52;;;;;;;7.60;1.10;;;15.10;62.40;;;;;;5059687;28;20503;-43
2021/10/21 11:27:38;;;;;;;4.53;1.23;;;15.20;62.30;;;;;;5059938;28;20461;-43
2021/10/21 11:30:15;;;;;;;5.53;1.43;;;15.20;62.40;;;;;;5077888;28;20467;-43
2021/10/21 11:33:03;;;;;;;1.63;1.03;;;15.20;62.90;;;;;;5079590;28;20460;-43
2021/10/21 11:35:36;;;;;;;4.13;1.60;;;15.20;63.30;;;;;;5066760;28;20457;-43
2021/10/21 11:38:10;;;;;;;3.70;1.30;;;15.20;63.10;;;;;;5082126;28;20456;-43
2021/10/21 11:40:39;;;;;;;3.03;2.23;;;15.20;62.60;;;;;;5079820;28;20958;-43
2021/10/21 11:43:07;;;;;;;4.93;1.10;;;15.10;63.10;;;;;;5079752;28;20444;-43
2021/10/21 11:45:39;;;;;;;9.40;1.70;;;15.00;63.10;;;;;;5078421;28;20494;-43
2021/10/21 11:48:16;;;;;;;2.30;1.10;;;15.00;62.50;;;;;;5079242;28;20503;-43
2021/10/21 11:50:49;;;;;;;5.90;1.20;;;15.00;62.70;;;;;;5076393;28;20448;-43
2021/10/21 11:53:20;;;;;;;3.43;1.33;;;15.00;62.60;;;;;;5078716;28;20445;-43
2021/10/21 11:55:52;;;;;;;4.67;1.37;;;15.00;62.40;;;;;;5077655;28;20449;-43
2021/10/21 11:58:24;;;;;;;6.23;2.80;;;14.90;62.80;;;;;;5079952;28;20481;-43
2021/10/21 12:01:04;;;;;;;5.90;3.80;;;14.90;62.20;;;;;;5073677;28;20499;-43
2021/10/21 12:03:37;;;;;;;7.33;1.50;;;14.90;62.00;;;;;;5075873;28;20473;-43
2021/10/21 12:06:05;;;;;;;3.03;1.10;;;14.80;61.80;;;;;;5079348;28;20485;-43
2021/10/21 12:08:32;;;;;;;2.37;1.90;;;14.80;62.00;;;;;;5063587;28;20503;-43
2021/10/21 12:11:03;;;;;;;7.10;1.73;;;14.80;60.80;;;;;;5077252;28;20503;-43
2021/10/21 12:13:38;;;;;;;3.53;1.73;;;14.80;61.50;;;;;;5062815;28;20449;-43
2021/10/21 12:16:16;;;;;;;5.17;1.30;;;14.80;60.80;;;;;;5078959;28;20460;-43
2021/10/21 12:19:09;;;;;;;9.83;1.63;;;14.80;60.80;;;;;;5080409;28;20842;-42
2021/10/21 12:21:39;;;;;;;7.60;1.53;;;14.70;60.40;;;;;;5075851;28;21072;-42
2021/10/21 12:24:19;;;;;;;2.63;0.93;;;14.70;60.70;;;;;;5056649;28;21015;-42
2021/10/21 12:26:53;;;;;;;5.40;1.10;;;14.60;61.00;;;;;;5075368;28;21437;-43
2021/10/21 12:29:20;;;;;;;3.63;1.00;;;14.60;60.20;;;;;;5074628;28;20456;-42
2021/10/21 12:31:48;;;;;;;4.87;1.10;;;14.60;60.70;;;;;;5078030;28;20460;-42
2021/10/21 12:34:26;;;;;;;3.80;1.30;;;14.60;60.10;;;;;;5076298;28;21190;-42
2021/10/21 12:36:54;;;;;;;3.40;1.33;;;14.60;60.20;;;;;;5082232;28;20460;-42
2021/10/21 12:39:33;;;;;;;3.73;1.40;;;14.70;61.20;;;;;;5081992;28;20446;-42
2021/10/21 12:42:08;;;;;;;2.00;1.27;;;14.70;60.10;;;;;;5076529;28;21317;-42
2021/10/21 12:44:39;;;;;;;2.53;0.90;;;14.80;59.70;;;;;;5077103;28;20464;-42
2021/10/21 12:47:22;;;;;;;6.40;2.83;;;14.80;58.90;;;;;;5075487;28;20564;-42
2021/10/21 12:50:11;;;;;;;6.77;2.90;;;14.90;59.70;;;;;;5079072;28;20954;-42
2021/10/21 12:52:39;;;;;;;7.50;1.10;;;14.90;60.40;;;;;;5074089;28;20461;-42
2021/10/21 12:55:16;;;;;;;1.20;0.90;;;14.90;60.10;;;;;;5078172;28;20964;-42
2021/10/21 12:58:09;;;;;;;2.70;0.93;;;14.90;60.40;;;;;;5067848;28;20954;-42
2021/10/21 13:00:38;;;;;;;3.03;1.13;;;15.00;59.90;;;;;;5078002;28;20446;-43